Language selection

My Weather Profile Weather Topics  | 

Douglas Channel: Past 24 Hour Conditions

 

South Moresby - 46147

05:00 PM PST 29 November 2022Buoy position: 51.83N 131.23W
Disclaimer

This table is a summary of hourly weather conditions for the past 24 hours.
Please note that these observations might not always be representative of weather conditions over their associated marine area.

Date / Time
(PST)
Wind(knots) Wave height(m) Wave period(s) Pressure(kPa) Air tempC) Water tempC)
29 November 2022
17:00 N 25 gust 33 3.2 8.3 99.9 1 8
16:00 NNE 27 gust 34 3.2 8.3 99.8 2 8
15:00 NNE 24 gust 29 3.3 8.8 99.9 2 8
14:00 NNE 29 gust 36 3.6 8.5 99.8 2 8
13:00 NE 32 gust 40 3.5 8.0 99.8 2 8
12:00 NE 33 gust 39 3.4 7.5 99.9 2 8
11:00 NE 32 gust 43 3.2 7.5 100.0 2 8
10:00 NE 29 gust 35 2.9 6.9 100.0 3 8
9:00 ENE 29 gust 34 3.0 6.6 100.1 3 8
8:00 ENE 28 gust 35 3.0 6.9 100.2 3 8
7:00 ENE 27 gust 33 2.8 9.8 100.3 3 8
6:00 E 25 gust 31 2.8 12.8 100.4 3 8
5:00 ESE 23 gust 29 2.6 8.8 100.6 4 8
4:00 ESE 22 gust 28 2.9 9.8 100.7 3 8
3:00 ESE 22 gust 28 2.8 10.2 100.9 3 8
2:00 ESE 19 gust 24 3.1 13.5 101.0 2 8
1:00 ESE 18 gust 23 2.8 11.6 101.2 2 8
0:00 SE 15 gust 18 2.8 9.5 101.3 3 8
28 November 2022
23:00 SE 11 gust 16 2.6 10.7 101.4 4 8
22:00 SE 11 gust 16 2.9 12.2 101.4 5 8
21:00 ESE 9 gust 12 2.8 14.2 101.5 5 8
20:00 SE 7 gust 12 2.8 10.7 101.5 4 8
19:00 E 6 gust 10 2.8 10.7 101.6 4 8
18:00 E 5 gust 11 3.0 9.8 101.7 4 8
17:00 NE 4 gust 8 3.1 11.6 101.7 4 8

Zoom-in to make a selection

Map of Pacific - North Coast marine weather areas Middle Nomad - 46004 South Nomad - 46036 Dixon Entrance Central - 46145 South Moresby - 46147 Nanakwa Shoal - 46181 North Hecate Strait - 46183 North Nomad - 46184 South Hecate Strait - 46185 West Sea Otter - 46204 West Dixon Entrance - 46205 East Dellwood - 46207 West Moresby - 46208 Sartine Island Cape St.James Kindakun Rocks Langara Island Masset Municipal Airport Rose Spit Sandspit Airport Bella Bella Airport Bella Coola Airport Bonilla Island Cathedral Point Cumshewa Island Grey Islet Holland Rock Lucy Islands Lightstation Prince Rupert Airport
Legend:
buoy Buoy
land station Land Station

Pacific - North Coast Area

Another Region

What we are doing

Date modified: